Time;durP1;ratioP1;P1;durP2;ratioP2;P2;SDS_P1;SDS_P2;PMS_P1;PMS_P2;Temp;Humidity;BMP_temperature;BMP_pressure;BME280_temperature;BME280_humidity;BME280_pressure;Samples;Min_cycle;Max_cycle;Signal;HPM_P1;HPM_P2
2024/01/25 00:02:06;;;;;;;20.50;15.40;;;;;;;2.26;74.28;99413.96;105600;1254;60347;-72
2024/01/25 00:04:34;;;;;;;22.30;17.60;;;;;;;2.24;74.27;99403.20;105686;1254;60444;-71
2024/01/25 00:07:01;;;;;;;20.60;16.00;;;;;;;2.21;74.30;99401.12;105523;1254;65276;-72
2024/01/25 00:09:28;;;;;;;22.10;16.60;;;;;;;2.18;74.31;99401.98;105919;1257;60434;-71
2024/01/25 00:11:55;;;;;;;20.80;15.80;;;;;;;2.16;74.34;99401.72;105769;1253;64121;-72
2024/01/25 00:14:23;;;;;;;20.00;15.60;;;;;;;2.16;74.41;99398.46;106222;1254;60438;-72
2024/01/25 00:16:50;;;;;;;19.80;15.80;;;;;;;2.14;74.44;99390.23;105890;1254;60492;-71
2024/01/25 00:19:17;;;;;;;20.10;15.60;;;;;;;2.13;74.43;99385.81;105851;1253;65669;-73
2024/01/25 00:21:44;;;;;;;20.10;15.60;;;;;;;2.13;74.54;99388.77;105237;1254;60562;-72
2024/01/25 00:24:12;;;;;;;20.30;15.80;;;;;;;2.12;74.57;99389.66;105880;1254;64012;-72
2024/01/25 00:26:39;;;;;;;21.00;15.60;;;;;;;2.13;74.65;99378.34;105898;1257;60472;-70
2024/01/25 00:29:06;;;;;;;19.10;15.10;;;;;;;2.13;74.64;99376.42;105643;1259;60601;-71
2024/01/25 00:31:33;;;;;;;19.80;15.60;;;;;;;2.13;74.61;99374.16;105659;1256;64948;-72
2024/01/25 00:34:01;;;;;;;19.80;15.00;;;;;;;2.13;74.67;99367.89;105913;1259;60534;-71
2024/01/25 00:36:29;;;;;;;20.80;15.90;;;;;;;2.13;74.79;99364.25;105910;1257;63962;-71
2024/01/25 00:38:56;;;;;;;18.80;15.20;;;;;;;2.13;74.77;99356.27;105795;1259;60549;-71
2024/01/25 00:41:23;;;;;;;20.70;16.20;;;;;;;2.12;74.74;99353.70;105795;1254;60467;-69
2024/01/25 00:43:50;;;;;;;18.50;14.90;;;;;;;2.14;74.74;99350.48;105313;1262;65025;-72
2024/01/25 00:46:17;;;;;;;19.80;15.00;;;;;;;2.15;74.70;99346.92;105194;1257;60551;-72
2024/01/25 00:48:45;;;;;;;18.70;15.10;;;;;;;2.15;74.79;99341.89;105838;1254;63952;-74
2024/01/25 00:51:15;;;;;;;21.20;16.20;;;;;;;2.15;74.85;99338.40;105745;1257;60555;-70
2024/01/25 00:53:42;;;;;;;19.40;15.50;;;;;;;2.16;74.87;99337.52;105724;1259;60359;-71
2024/01/25 00:56:11;;;;;;;19.80;15.60;;;;;;;2.16;74.83;99333.31;105681;1258;65045;-70
2024/01/25 00:58:38;;;;;;;18.80;15.20;;;;;;;2.17;74.87;99330.48;105653;1253;60392;-71
2024/01/25 01:01:06;;;;;;;20.00;15.00;;;;;;;2.17;74.91;99327.16;105699;1259;62820;-70
2024/01/25 01:03:34;;;;;;;19.00;15.00;;;;;;;2.18;74.99;99321.73;105598;1259;60458;-71
2024/01/25 01:06:01;;;;;;;19.00;15.00;;;;;;;2.19;75.03;99314.87;105597;1258;60541;-72
2024/01/25 01:08:29;;;;;;;20.00;15.80;;;;;;;2.20;75.03;99307.35;105495;1258;64941;-73
2024/01/25 01:10:56;;;;;;;19.10;15.20;;;;;;;2.21;75.01;99304.00;105329;1255;60475;-73
2024/01/25 01:13:23;;;;;;;21.00;16.00;;;;;;;2.22;75.11;99301.35;105699;1253;64030;-71
2024/01/25 01:15:50;;;;;;;20.90;15.60;;;;;;;2.22;75.02;99296.13;105998;1253;59120;-70
2024/01/25 01:18:17;;;;;;;22.20;16.00;;;;;;;2.24;75.02;99295.86;105533;1253;60476;-72
2024/01/25 01:20:44;;;;;;;21.10;16.20;;;;;;;2.24;75.05;99290.09;105680;1259;64883;-71
2024/01/25 01:23:11;;;;;;;19.00;15.60;;;;;;;2.25;75.08;99289.33;105469;1261;60416;-70
2024/01/25 01:25:37;;;;;;;18.70;15.00;;;;;;;2.26;75.03;99285.81;105464;1259;64074;-71
2024/01/25 01:28:05;;;;;;;19.50;15.90;;;;;;;2.26;75.05;99281.11;105508;1260;60419;-70
2024/01/25 01:30:31;;;;;;;20.60;16.10;;;;;;;2.26;75.00;99279.02;105659;1254;60550;-71
2024/01/25 01:32:58;;;;;;;20.40;15.20;;;;;;;2.26;75.04;99275.36;105693;1260;65263;-70
2024/01/25 01:35:25;;;;;;;19.50;15.20;;;;;;;2.27;75.06;99271.00;105460;1259;60538;-70
2024/01/25 01:37:53;;;;;;;21.50;15.70;;;;;;;2.26;75.01;99268.77;105460;1254;64076;-72
2024/01/25 01:40:20;;;;;;;18.80;15.00;;;;;;;2.26;75.04;99265.81;105570;1256;60384;-71
2024/01/25 01:42:47;;;;;;;19.80;15.40;;;;;;;2.27;75.06;99262.48;105405;1259;60543;-70
2024/01/25 01:45:14;;;;;;;18.70;15.20;;;;;;;2.27;74.97;99257.79;105537;1254;65023;-70
2024/01/25 01:47:41;;;;;;;19.50;15.40;;;;;;;2.26;74.97;99253.66;105825;1258;60348;-72
2024/01/25 01:50:09;;;;;;;20.20;15.80;;;;;;;2.26;74.99;99251.77;105742;1257;64015;-71
2024/01/25 01:52:37;;;;;;;20.90;15.50;;;;;;;2.25;75.00;99250.21;105520;1255;60398;-72
2024/01/25 01:55:04;;;;;;;18.90;14.90;;;;;;;2.25;75.01;99248.01;105214;1255;60448;-71
2024/01/25 01:57:31;;;;;;;19.00;15.10;;;;;;;2.23;74.88;99238.39;105585;1260;65246;-71
2024/01/25 01:59:58;;;;;;;20.90;15.50;;;;;;;2.21;74.95;99235.70;105618;1259;60479;-69
2024/01/25 02:02:26;;;;;;;18.50;14.50;;;;;;;2.20;74.91;99230.45;105685;1259;63896;-71
2024/01/25 02:04:53;;;;;;;19.90;15.40;;;;;;;2.18;74.89;99231.06;105504;1260;60409;-70
2024/01/25 02:07:20;;;;;;;19.10;14.90;;;;;;;2.17;74.96;99225.93;105575;1254;60504;-70
2024/01/25 02:09:47;;;;;;;20.30;15.40;;;;;;;2.17;75.06;99226.48;105596;1259;65649;-70
2024/01/25 02:12:17;;;;;;;18.70;14.40;;;;;;;2.16;75.03;99216.80;105554;1258;60345;-71
2024/01/25 02:14:45;;;;;;;18.80;14.90;;;;;;;2.15;75.06;99213.72;105588;1260;63936;-72
2024/01/25 02:17:12;;;;;;;17.80;14.30;;;;;;;2.15;75.14;99214.97;105477;1256;60556;-71
2024/01/25 02:19:39;;;;;;;17.40;14.20;;;;;;;2.15;75.16;99210.81;105741;1254;60450;-72
2024/01/25 02:22:06;;;;;;;16.60;13.20;;;;;;;2.15;75.10;99210.48;105774;1254;65182;-72
2024/01/25 02:24:34;;;;;;;17.00;14.10;;;;;;;2.13;75.19;99201.85;105658;1258;60457;-71
2024/01/25 02:27:01;;;;;;;16.50;13.40;;;;;;;2.13;75.20;99196.35;105515;1259;63860;-71
2024/01/25 02:29:28;;;;;;;17.70;13.70;;;;;;;2.12;75.19;99193.60;105566;1259;60658;-70
2024/01/25 02:31:55;;;;;;;17.80;13.70;;;;;;;2.11;75.19;99190.70;105673;1254;60575;-71
2024/01/25 02:34:22;;;;;;;16.70;13.00;;;;;;;2.10;75.22;99191.14;105566;1262;65268;-71
2024/01/25 02:36:49;;;;;;;16.80;13.40;;;;;;;2.07;75.31;99188.55;105436;1257;60438;-71
2024/01/25 02:39:17;;;;;;;15.90;12.80;;;;;;;2.05;75.36;99181.25;105488;1259;64147;-70
2024/01/25 02:41:44;;;;;;;16.60;13.30;;;;;;;2.05;75.34;99180.56;105586;1253;60348;-71
2024/01/25 02:44:11;;;;;;;15.70;12.50;;;;;;;2.05;75.34;99177.23;105625;1255;60430;-71
2024/01/25 02:46:38;;;;;;;16.10;13.40;;;;;;;2.05;75.38;99177.42;105546;1259;65261;-72
2024/01/25 02:49:05;;;;;;;16.80;13.40;;;;;;;2.04;75.42;99172.42;105707;1259;60445;-71
2024/01/25 02:51:33;;;;;;;16.00;12.70;;;;;;;2.03;75.46;99169.19;105632;1259;64117;-72
2024/01/25 02:54:00;;;;;;;13.40;11.70;;;;;;;2.04;75.49;99172.80;105457;1260;60381;-71
2024/01/25 02:56:33;;;;;;;16.20;12.90;;;;;;;2.05;75.49;99164.75;105696;1253;61772;-71
2024/01/25 02:59:01;;;;;;;17.20;13.60;;;;;;;2.04;75.58;99162.50;105601;1255;64158;-70
2024/01/25 03:01:28;;;;;;;20.00;15.00;;;;;;;2.04;75.59;99157.48;105645;1253;60625;-70
2024/01/25 03:03:55;;;;;;;15.90;12.90;;;;;;;2.04;75.55;99155.61;105766;1259;64061;-70
2024/01/25 03:06:22;;;;;;;16.20;13.30;;;;;;;2.03;75.57;99155.13;105302;1253;60439;-71
2024/01/25 03:08:49;;;;;;;16.90;13.40;;;;;;;2.03;75.54;99156.18;105585;1255;60533;-70
2024/01/25 03:11:16;;;;;;;17.60;13.90;;;;;;;2.02;75.59;99152.38;105497;1260;65642;-70
2024/01/25 03:13:43;;;;;;;18.40;13.80;;;;;;;2.01;75.68;99149.48;105535;1259;60553;-71
2024/01/25 03:16:11;;;;;;;18.20;14.20;;;;;;;2.00;75.71;99146.59;105546;1260;62791;-72
2024/01/25 03:18:38;;;;;;;16.40;13.30;;;;;;;2.01;75.77;99141.34;105639;1254;60529;-72
2024/01/25 03:21:05;;;;;;;18.50;14.60;;;;;;;2.01;75.76;99139.58;105558;1254;60425;-71
2024/01/25 03:23:32;;;;;;;17.90;14.20;;;;;;;2.02;75.75;99136.93;105697;1256;64920;-71
2024/01/25 03:26:19;;;;;;;17.90;14.20;;;;;;;2.03;75.80;99136.02;105646;1258;60463;-72
2024/01/25 03:28:46;;;;;;;16.40;13.60;;;;;;;2.05;75.80;99136.98;105860;1256;64103;-71
2024/01/25 03:31:13;;;;;;;18.60;14.50;;;;;;;2.06;75.77;99144.86;105627;1260;60348;-70
2024/01/25 03:33:40;;;;;;;15.30;12.30;;;;;;;2.08;75.77;99144.05;105447;1260;60643;-70
2024/01/25 03:36:07;;;;;;;17.20;12.60;;;;;;;2.09;75.82;99139.61;105549;1258;64952;-71
2024/01/25 03:38:34;;;;;;;15.20;11.70;;;;;;;2.12;75.94;99133.73;105441;1259;60463;-71
2024/01/25 03:41:01;;;;;;;15.40;12.60;;;;;;;2.13;75.94;99132.61;105848;1255;64300;-72
2024/01/25 03:43:28;;;;;;;15.50;12.20;;;;;;;2.15;75.98;99130.23;105515;1260;60414;-71
2024/01/25 03:46:09;;;;;;;15.00;12.10;;;;;;;2.12;76.10;99127.25;105562;1254;60460;-72
2024/01/25 03:48:36;;;;;;;15.50;12.00;;;;;;;2.16;76.05;99124.74;105717;1259;65290;-70
2024/01/25 03:51:03;;;;;;;16.20;12.60;;;;;;;2.18;76.08;99127.23;105600;1260;60498;-71
2024/01/25 03:53:31;;;;;;;16.00;12.10;;;;;;;2.21;76.08;99121.46;105459;1260;62754;-71
2024/01/25 03:55:58;;;;;;;16.00;11.90;;;;;;;2.22;76.09;99116.53;105385;1258;60434;-72
2024/01/25 03:58:25;;;;;;;16.30;11.20;;;;;;;2.24;76.11;99114.16;105248;1255;60480;-71
2024/01/25 04:00:52;;;;;;;14.90;11.80;;;;;;;2.25;76.11;99114.93;105683;1260;65267;-71
2024/01/25 04:03:19;;;;;;;14.90;12.00;;;;;;;2.27;76.12;99117.79;105517;1259;60556;-70
2024/01/25 04:05:46;;;;;;;14.90;12.10;;;;;;;2.28;76.14;99115.60;105393;1257;64099;-70
2024/01/25 04:08:13;;;;;;;15.40;12.40;;;;;;;2.29;76.15;99113.33;105753;1260;60307;-71
2024/01/25 04:10:40;;;;;;;15.70;12.50;;;;;;;2.29;76.18;99112.43;105857;1258;60482;-70
2024/01/25 04:13:07;;;;;;;14.60;11.80;;;;;;;2.29;76.20;99110.70;105470;1261;65085;-71
2024/01/25 04:15:34;;;;;;;16.00;12.50;;;;;;;2.29;76.20;99107.02;105724;1261;60392;-70
2024/01/25 04:18:02;;;;;;;17.60;12.90;;;;;;;2.30;76.21;99104.38;105490;1257;62479;-70
2024/01/25 04:20:29;;;;;;;17.40;12.70;;;;;;;2.31;76.20;99101.90;105701;1254;60398;-70
2024/01/25 04:22:56;;;;;;;15.90;12.60;;;;;;;2.32;76.20;99103.92;105784;1260;60492;-71
2024/01/25 04:25:23;;;;;;;16.00;12.50;;;;;;;2.33;76.15;99099.02;105642;1254;65330;-70
2024/01/25 04:27:50;;;;;;;17.50;12.90;;;;;;;2.34;76.16;99094.96;105527;1259;60460;-70
2024/01/25 04:30:18;;;;;;;16.40;13.30;;;;;;;2.35;76.18;99091.57;105528;1259;64066;-70
2024/01/25 04:32:45;;;;;;;14.60;12.00;;;;;;;2.37;76.20;99096.50;105575;1260;61935;-70
2024/01/25 04:35:13;;;;;;;16.80;13.70;;;;;;;2.37;76.22;99096.30;105598;1254;60421;-70
2024/01/25 04:37:40;;;;;;;16.80;12.50;;;;;;;2.37;76.20;99094.02;105721;1258;65166;-70
2024/01/25 04:40:08;;;;;;;15.70;12.60;;;;;;;2.38;76.17;99094.82;105492;1255;60512;-72
2024/01/25 04:42:35;;;;;;;16.90;13.00;;;;;;;2.39;76.14;99093.42;105607;1258;64061;-71
2024/01/25 04:45:02;;;;;;;16.00;12.40;;;;;;;2.39;76.24;99092.67;105477;1255;60431;-71
2024/01/25 04:47:29;;;;;;;16.30;12.60;;;;;;;2.39;76.23;99091.25;105684;1259;60486;-73
2024/01/25 04:49:56;;;;;;;16.30;12.90;;;;;;;2.41;76.20;99092.02;105713;1260;65209;-73
2024/01/25 04:52:23;;;;;;;18.10;12.80;;;;;;;2.42;76.21;99086.94;105510;1254;60312;-73
2024/01/25 04:54:50;;;;;;;17.90;14.20;;;;;;;2.43;76.19;99084.44;105611;1259;64118;-70
2024/01/25 04:57:17;;;;;;;17.00;13.80;;;;;;;2.44;76.19;99085.09;105534;1260;61044;-69
2024/01/25 04:59:44;;;;;;;19.00;14.60;;;;;;;2.44;76.15;99087.50;105745;1257;60585;-75
2024/01/25 05:02:11;;;;;;;23.40;16.80;;;;;;;2.45;76.21;99089.34;105629;1259;64986;-72
2024/01/25 05:04:38;;;;;;;20.30;15.30;;;;;;;2.46;76.16;99089.13;105592;1254;60428;-75
2024/01/25 05:07:06;;;;;;;17.60;13.70;;;;;;;2.46;76.25;99088.23;105762;1258;63702;-73
2024/01/25 05:09:33;;;;;;;17.70;13.70;;;;;;;2.47;76.26;99087.98;105862;1258;60448;-72
2024/01/25 05:12:02;;;;;;;17.90;13.60;;;;;;;2.47;76.28;99088.12;105610;1254;60512;-72
2024/01/25 05:14:29;;;;;;;19.60;14.90;;;;;;;2.48;76.24;99088.55;105646;1255;65004;-71
2024/01/25 05:16:56;;;;;;;20.50;14.70;;;;;;;2.50;76.34;99084.65;105539;1258;60495;-70
2024/01/25 05:19:25;;;;;;;19.60;14.50;;;;;;;2.52;76.30;99084.88;105578;1254;64093;-71
2024/01/25 05:21:52;;;;;;;18.20;14.60;;;;;;;2.54;76.30;99085.05;105861;1254;60434;-70
2024/01/25 05:24:19;;;;;;;18.50;14.50;;;;;;;2.55;76.28;99086.55;105616;1260;60415;-73
2024/01/25 05:26:46;;;;;;;19.60;15.30;;;;;;;2.56;76.31;99084.56;105647;1254;65247;-70
2024/01/25 05:29:13;;;;;;;21.60;14.90;;;;;;;2.58;76.30;99086.36;105699;1254;60431;-72
2024/01/25 05:31:40;;;;;;;21.80;15.20;;;;;;;2.60;76.28;99084.34;105784;1261;65577;-71
2024/01/25 05:34:07;;;;;;;19.60;15.10;;;;;;;2.61;76.24;99080.63;105792;1254;60578;-72
2024/01/25 05:36:35;;;;;;;19.40;15.20;;;;;;;2.63;76.27;99081.39;105611;1257;60310;-69
2024/01/25 05:39:06;;;;;;;20.30;14.80;;;;;;;2.63;76.23;99077.02;105596;1257;65137;-70
2024/01/25 05:41:33;;;;;;;19.00;15.10;;;;;;;2.64;76.26;99077.49;105365;1258;60553;-73
2024/01/25 05:44:00;;;;;;;20.30;15.20;;;;;;;2.65;76.29;99078.64;105523;1258;62909;-69
2024/01/25 05:46:27;;;;;;;19.00;14.20;;;;;;;2.66;76.24;99076.64;105439;1257;60485;-72
2024/01/25 05:48:55;;;;;;;20.10;15.20;;;;;;;2.67;76.23;99076.38;105611;1255;60345;-71
2024/01/25 05:51:24;;;;;;;20.90;15.60;;;;;;;2.68;76.25;99078.05;105616;1254;65063;-69
2024/01/25 05:53:51;;;;;;;18.70;14.30;;;;;;;2.68;76.19;99076.30;105586;1259;60495;-70
2024/01/25 05:56:18;;;;;;;19.60;14.20;;;;;;;2.68;76.22;99073.34;105605;1255;64040;-67
2024/01/25 05:58:45;;;;;;;17.30;14.00;;;;;;;2.68;76.22;99073.02;105682;1256;60462;-72
2024/01/25 06:01:12;;;;;;;19.30;14.70;;;;;;;2.68;76.21;99069.86;105468;1254;60881;-71
2024/01/25 06:03:39;;;;;;;19.50;14.50;;;;;;;2.68;76.23;99069.17;105845;1257;65190;-71
2024/01/25 06:06:07;;;;;;;20.40;14.50;;;;;;;2.68;76.23;99068.16;105622;1267;67148;-69
2024/01/25 06:08:35;;;;;;;19.60;15.10;;;;;;;2.67;76.19;99069.05;105431;1259;62670;-71
2024/01/25 06:11:02;;;;;;;20.80;15.90;;;;;;;2.68;76.21;99071.79;105607;1268;60471;-72
2024/01/25 06:13:29;;;;;;;21.90;15.10;;;;;;;2.69;76.18;99070.84;105746;1259;60435;-72
2024/01/25 06:15:56;;;;;;;20.80;15.50;;;;;;;2.70;76.20;99068.20;105709;1257;63823;-72
2024/01/25 06:18:23;;;;;;;19.90;15.20;;;;;;;2.70;76.17;99065.20;105553;1254;60585;-71
2024/01/25 06:20:51;;;;;;;18.80;14.60;;;;;;;2.71;76.21;99066.53;105682;1258;63891;-72
2024/01/25 06:23:18;;;;;;;21.50;16.00;;;;;;;2.73;76.21;99064.36;106205;1255;60645;-73
2024/01/25 06:25:44;;;;;;;19.90;15.50;;;;;;;2.74;76.21;99059.58;105642;1254;60413;-73
2024/01/25 06:28:11;;;;;;;18.30;13.90;;;;;;;2.75;76.11;99059.37;105605;1255;66967;-71
2024/01/25 06:30:38;;;;;;;20.10;14.50;;;;;;;2.74;76.16;99054.48;105715;1253;60536;-71
2024/01/25 06:33:05;;;;;;;18.40;13.90;;;;;;;2.75;76.20;99053.89;105543;1254;63685;-72
2024/01/25 06:35:32;;;;;;;19.30;14.80;;;;;;;2.77;76.21;99049.12;105507;1255;60353;-72
2024/01/25 06:38:00;;;;;;;20.20;15.20;;;;;;;2.78;76.20;99049.00;105737;1259;60463;-71
2024/01/25 06:40:26;;;;;;;19.40;15.20;;;;;;;2.79;76.23;99046.84;105703;1260;63671;-70
2024/01/25 06:42:54;;;;;;;19.80;15.20;;;;;;;2.80;76.29;99046.08;105572;1262;60546;-72
2024/01/25 06:45:21;;;;;;;18.70;14.40;;;;;;;2.81;76.33;99045.90;105626;1254;62707;-70
2024/01/25 06:47:48;;;;;;;21.60;15.50;;;;;;;2.82;76.27;99048.56;105609;1254;60629;-70
2024/01/25 06:50:15;;;;;;;20.00;15.10;;;;;;;2.84;76.25;99047.08;105665;1254;60467;-72
2024/01/25 06:52:42;;;;;;;21.60;14.50;;;;;;;2.85;76.27;99041.73;105710;1257;65692;-74
2024/01/25 06:55:09;;;;;;;19.70;14.20;;;;;;;2.89;76.36;99043.77;105698;1254;60323;-73
2024/01/25 06:57:38;;;;;;;20.40;13.70;;;;;;;2.93;76.41;99043.85;105777;1254;64097;-72
2024/01/25 07:00:06;;;;;;;20.00;14.30;;;;;;;2.96;76.40;99043.45;105720;1258;60559;-72
2024/01/25 07:02:34;;;;;;;19.60;13.50;;;;;;;2.99;76.52;99045.67;105881;1254;60383;-76
2024/01/25 07:05:02;;;;;;;16.80;14.00;;;;;;;3.03;76.52;99042.09;105716;1258;65712;-73
2024/01/25 07:07:32;;;;;;;19.90;13.80;;;;;;;3.06;76.53;99040.46;105790;1257;60495;-75
2024/01/25 07:09:59;;;;;;;19.30;13.50;;;;;;;3.10;76.55;99042.13;105690;1254;63955;-70
2024/01/25 07:12:27;;;;;;;19.20;14.70;;;;;;;3.13;76.52;99042.61;105585;1254;60352;-71
2024/01/25 07:14:53;;;;;;;19.20;13.80;;;;;;;3.14;76.47;99043.05;105670;1254;60543;-72
2024/01/25 07:17:21;;;;;;;18.20;14.20;;;;;;;3.15;76.43;99037.95;105580;1258;65176;-71
2024/01/25 07:19:48;;;;;;;17.30;13.60;;;;;;;3.15;76.46;99045.73;105607;1258;60873;-73
2024/01/25 07:22:17;;;;;;;18.80;13.30;;;;;;;3.16;76.48;99042.34;105476;1260;64774;-69
2024/01/25 07:24:44;;;;;;;19.00;14.00;;;;;;;3.17;76.41;99037.98;105668;1254;60371;-71
2024/01/25 07:27:11;;;;;;;19.60;14.10;;;;;;;3.18;76.34;99041.89;105724;1257;60774;-71
2024/01/25 07:29:38;;;;;;;20.00;14.00;;;;;;;3.19;76.46;99042.73;105595;1259;66678;-71
2024/01/25 07:32:05;;;;;;;19.00;14.40;;;;;;;3.19;76.37;99036.62;105717;1255;60472;-71
2024/01/25 07:34:31;;;;;;;19.80;14.50;;;;;;;3.19;76.35;99034.70;105703;1253;65579;-71
2024/01/25 07:36:59;;;;;;;20.00;14.30;;;;;;;3.20;76.39;99029.77;105646;1258;60416;-70
2024/01/25 07:39:26;;;;;;;18.20;13.90;;;;;;;3.20;76.36;99030.43;105481;1257;60472;-70
2024/01/25 07:41:53;;;;;;;17.50;14.00;;;;;;;3.21;76.29;99027.47;105538;1259;67030;-70
2024/01/25 07:44:20;;;;;;;20.30;14.90;;;;;;;3.20;76.29;99026.29;105573;1258;60526;-73
2024/01/25 07:46:48;;;;;;;20.00;15.50;;;;;;;3.20;76.27;99025.05;105673;1258;64803;-80
2024/01/25 07:49:15;;;;;;;18.40;14.40;;;;;;;3.21;76.33;99024.27;105635;1254;60480;-72
2024/01/25 07:51:42;;;;;;;19.70;15.40;;;;;;;3.23;76.29;99026.58;105735;1257;60476;-72
2024/01/25 07:54:09;;;;;;;19.30;14.50;;;;;;;3.25;76.31;99030.64;105713;1260;67448;-72
2024/01/25 07:56:36;;;;;;;21.00;14.80;;;;;;;3.28;76.33;99029.57;105619;1257;60661;-70
2024/01/25 07:59:03;;;;;;;19.20;14.70;;;;;;;3.31;76.36;99027.27;105672;1254;65773;-73
2024/01/25 08:01:30;;;;;;;21.20;16.50;;;;;;;3.35;76.42;99023.83;105855;1254;60364;-74
2024/01/25 08:03:58;;;;;;;22.20;17.90;;;;;;;3.39;76.47;99021.09;105527;1261;60529;-72
2024/01/25 08:06:26;;;;;;;23.70;17.20;;;;;;;3.45;76.54;99021.50;105626;1257;294823;-75
2024/01/25 08:08:53;;;;;;;25.30;18.40;;;;;;;3.52;76.53;99019.85;105758;1258;60345;-74
2024/01/25 08:11:21;;;;;;;25.80;19.90;;;;;;;3.58;76.63;99019.58;105781;1254;71987;-77
2024/01/25 08:13:48;;;;;;;29.20;20.50;;;;;;;3.63;76.68;99018.84;105855;1254;60475;-71
2024/01/25 08:16:19;;;;;;;33.10;22.10;;;;;;;3.68;76.72;99013.57;105682;1259;62296;-70
2024/01/25 08:18:47;;;;;;;30.10;21.40;;;;;;;3.72;76.69;99016.79;105437;1254;75308;-72
2024/01/25 08:21:14;;;;;;;28.20;20.40;;;;;;;3.76;76.66;99018.95;105753;1259;60432;-71
2024/01/25 08:23:42;;;;;;;24.40;17.10;;;;;;;3.80;76.75;99018.09;105732;1256;64639;-70
2024/01/25 08:26:12;;;;;;;31.40;21.30;;;;;;;3.85;76.78;99021.60;105761;1256;60415;-73
2024/01/25 08:28:39;;;;;;;35.50;23.50;;;;;;;3.88;76.69;99021.19;105836;1256;60527;-73
2024/01/25 08:31:06;;;;;;;28.10;19.20;;;;;;;3.91;76.77;99017.28;105742;1257;65257;-73
2024/01/25 08:33:33;;;;;;;31.40;21.20;;;;;;;3.96;76.75;99017.85;105775;1258;60220;-74
2024/01/25 08:36:01;;;;;;;31.20;21.10;;;;;;;4.00;76.72;99017.50;105794;1254;73066;-74
2024/01/25 08:38:28;;;;;;;24.50;16.90;;;;;;;4.06;76.67;99016.20;105644;1256;60402;-70
2024/01/25 08:40:55;;;;;;;18.00;11.30;;;;;;;4.13;76.79;99015.71;105589;1257;60448;-72
2024/01/25 08:43:22;;;;;;;15.30;10.70;;;;;;;4.19;76.78;99012.62;105555;1259;67391;-71
2024/01/25 08:45:49;;;;;;;14.90;10.10;;;;;;;4.23;76.73;99009.53;105759;1254;60398;-74
2024/01/25 08:48:16;;;;;;;13.00;10.50;;;;;;;4.24;76.66;99010.30;105562;1262;65637;-71
2024/01/25 08:50:45;;;;;;;14.10;10.20;;;;;;;4.26;76.62;99009.14;105941;1260;60532;-72
2024/01/25 08:53:12;;;;;;;15.40;10.80;;;;;;;4.29;76.66;99005.62;105524;1254;61135;-71
2024/01/25 08:55:39;;;;;;;13.00;10.00;;;;;;;4.32;76.66;99002.39;105479;1258;67263;-71
2024/01/25 08:58:06;;;;;;;15.50;10.30;;;;;;;4.39;76.76;99002.95;105518;1259;60423;-74
2024/01/25 09:00:33;;;;;;;17.40;12.60;;;;;;;4.45;76.77;98998.49;105624;1254;64947;-73
2024/01/25 09:03:00;;;;;;;15.10;10.40;;;;;;;4.49;76.76;98997.92;105731;1254;60466;-72
2024/01/25 09:05:28;;;;;;;17.80;12.10;;;;;;;4.55;76.82;98997.70;105701;1254;60933;-72
2024/01/25 09:07:55;;;;;;;13.60;9.40;;;;;;;4.61;76.86;98992.48;105973;1257;66999;-72
2024/01/25 09:10:22;;;;;;;15.40;9.80;;;;;;;4.68;76.82;98991.64;105666;1260;60445;-73
2024/01/25 09:12:49;;;;;;;13.20;9.50;;;;;;;4.72;76.84;98990.47;105861;1254;65673;-73
2024/01/25 09:15:18;;;;;;;12.20;9.00;;;;;;;4.76;76.90;98990.35;105762;1254;62131;-73
2024/01/25 09:17:45;;;;;;;10.00;8.20;;;;;;;4.78;76.81;98985.94;105704;1254;60548;-73
2024/01/25 09:20:12;;;;;;;10.20;8.50;;;;;;;4.81;76.79;98986.92;105881;1254;65192;-74
2024/01/25 09:22:40;;;;;;;14.40;9.50;;;;;;;4.86;76.82;98987.26;105653;1254;60380;-73
2024/01/25 09:25:07;;;;;;;10.70;7.20;;;;;;;4.89;76.75;98982.67;105749;1258;65851;-73
2024/01/25 09:27:38;;;;;;;9.00;7.10;;;;;;;4.92;76.70;98979.50;105794;1257;60286;-74
2024/01/25 09:30:06;;;;;;;11.00;7.20;;;;;;;4.93;76.60;98977.32;105780;1254;60472;-75
2024/01/25 09:32:34;;;;;;;9.60;6.10;;;;;;;4.96;76.65;98973.92;105896;1259;68548;-74
2024/01/25 09:35:01;;;;;;;8.80;6.00;;;;;;;5.00;76.64;98977.92;105804;1255;60442;-74
2024/01/25 09:37:28;;;;;;;8.30;6.10;;;;;;;5.04;76.55;98974.86;105916;1254;65564;-73
2024/01/25 09:39:58;;;;;;;8.40;6.10;;;;;;;5.07;76.54;98970.55;105681;1259;60546;-70
2024/01/25 09:42:28;;;;;;;9.10;6.60;;;;;;;5.12;76.47;98967.91;105673;1256;60427;-72
2024/01/25 09:44:56;;;;;;;8.00;6.00;;;;;;;5.17;76.51;98966.31;105744;1257;66952;-73
2024/01/25 09:47:23;;;;;;;12.60;7.30;;;;;;;5.23;76.46;98968.95;105701;1260;60418;-74
2024/01/25 09:49:50;;;;;;;12.10;6.80;;;;;;;5.31;76.42;98964.52;105779;1257;64746;-71
2024/01/25 09:52:17;;;;;;;8.70;6.10;;;;;;;5.38;76.38;98962.86;105297;1255;60436;-70
2024/01/25 09:54:44;;;;;;;7.50;5.60;;;;;;;5.46;76.35;98959.81;105414;1254;60514;-69
2024/01/25 09:57:18;;;;;;;8.60;6.00;;;;;;;5.55;76.44;98959.23;105632;1253;75789;-72
2024/01/25 09:59:45;;;;;;;9.40;6.00;;;;;;;5.62;76.36;98965.43;105803;1253;60719;-73
2024/01/25 10:02:12;;;;;;;8.90;5.60;;;;;;;5.69;76.16;98961.57;105849;1259;64648;-73
2024/01/25 10:04:39;;;;;;;7.30;5.10;;;;;;;5.75;75.91;98956.54;105422;1260;60542;-75
2024/01/25 10:07:06;;;;;;;8.80;5.20;;;;;;;5.80;75.72;98958.46;105771;1257;60546;-72
2024/01/25 10:09:42;;;;;;;8.00;5.20;;;;;;;5.83;75.64;98955.54;105962;1260;66104;-70
2024/01/25 10:12:09;;;;;;;8.90;5.30;;;;;;;5.88;75.38;98953.38;105799;1254;60453;-72
2024/01/25 10:14:45;;;;;;;8.80;5.10;;;;;;;5.90;75.10;98950.77;105763;1254;65798;-72
2024/01/25 10:17:12;;;;;;;9.00;4.70;;;;;;;5.94;75.03;98954.12;105704;1259;60431;-71
2024/01/25 10:19:43;;;;;;;7.80;5.30;;;;;;;5.96;74.79;98954.82;105637;1257;60543;-71
2024/01/25 10:22:12;;;;;;;7.80;4.90;;;;;;;5.98;74.58;98955.71;105687;1261;67083;-70
2024/01/25 10:24:40;;;;;;;9.20;5.10;;;;;;;5.97;74.34;98949.84;105550;1254;60469;-71
2024/01/25 10:27:08;;;;;;;7.30;4.60;;;;;;;5.95;74.14;98949.30;105791;1254;65109;-72
2024/01/25 10:29:34;;;;;;;7.70;4.80;;;;;;;5.96;74.09;98945.75;105729;1253;60559;-71
2024/01/25 10:32:18;;;;;;;7.00;5.20;;;;;;;5.99;73.80;98945.15;103030;1289;599410;-71
2024/01/25 10:34:46;;;;;;;9.90;5.50;;;;;;;5.99;73.74;98943.08;104844;1265;59353;-73
2024/01/25 10:37:15;;;;;;;7.30;5.20;;;;;;;6.01;73.68;98943.98;105048;1269;61087;-72
2024/01/25 10:39:43;;;;;;;6.90;4.90;;;;;;;6.00;73.49;98944.58;105052;1269;74591;-73
2024/01/25 10:42:12;;;;;;;9.40;5.50;;;;;;;5.99;73.46;98942.67;104966;1266;59936;-74
2024/01/25 10:44:39;;;;;;;9.50;5.70;;;;;;;5.98;73.30;98943.62;104919;1266;66400;-74
2024/01/25 10:47:07;;;;;;;8.80;5.60;;;;;;;5.99;73.25;98946.57;105075;1263;183898;-68
2024/01/25 10:49:35;;;;;;;9.10;5.10;;;;;;;5.99;73.08;98941.68;105245;1263;59728;-70
2024/01/25 10:52:04;;;;;;;8.60;5.50;;;;;;;5.96;73.00;98942.58;105208;1263;65040;-71
2024/01/25 10:54:33;;;;;;;10.40;6.30;;;;;;;5.93;72.91;98941.60;105079;1263;61183;-70
2024/01/25 10:57:04;;;;;;;9.80;5.60;;;;;;;5.91;72.89;98949.11;105217;1263;65815;-70
2024/01/25 10:59:38;;;;;;;7.40;5.10;;;;;;;5.89;72.83;98954.02;104936;1268;63141;-73
2024/01/25 11:02:07;;;;;;;9.00;6.00;;;;;;;5.85;72.68;98952.76;105273;1265;59863;-82
2024/01/25 11:04:36;;;;;;;8.70;5.20;;;;;;;5.84;72.78;98956.54;105381;1263;66469;-74
2024/01/25 11:07:11;;;;;;;7.10;5.20;;;;;;;5.82;72.77;98958.45;105293;1265;60367;-81
2024/01/25 11:09:39;;;;;;;9.10;5.20;;;;;;;5.77;72.75;98956.54;105230;1261;66283;-76
2024/01/25 11:12:16;;;;;;;9.90;5.70;;;;;;;5.73;72.83;98958.05;105429;1260;59689;-74
2024/01/25 11:14:44;;;;;;;9.60;6.10;;;;;;;5.70;72.87;98957.67;105360;1265;59953;-75
2024/01/25 11:17:21;;;;;;;9.20;5.70;;;;;;;5.67;72.92;98957.20;105384;1260;65895;-77
2024/01/25 11:19:53;;;;;;;8.10;5.40;;;;;;;5.66;73.00;98956.61;105212;1260;59691;-77
2024/01/25 11:22:22;;;;;;;11.70;6.50;;;;;;;5.67;73.18;98952.49;105309;1263;67169;-71